createdAt,value
2023-04-05T00:01:39.152Z,62.38
2023-04-05T00:04:08.436Z,62.20
2023-04-05T00:06:40.004Z,54.80
2023-04-05T00:09:09.296Z,58.58
2023-04-05T00:11:38.006Z,53.13
2023-04-05T00:14:07.058Z,57.13
2023-04-05T00:16:37.372Z,54.70
2023-04-05T00:19:06.561Z,55.10
2023-04-05T00:21:35.587Z,57.40
2023-04-05T00:24:05.369Z,58.42
2023-04-05T00:26:34.325Z,59.13
2023-04-05T00:29:03.319Z,53.33
2023-04-05T00:31:32.206Z,59.67
2023-04-05T00:34:02.789Z,56.30
2023-04-05T00:36:32.226Z,52.72
2023-04-05T00:39:01.223Z,54.10
2023-04-05T00:41:29.949Z,55.47
2023-04-05T00:44:00.021Z,53.33
2023-04-05T00:46:29.823Z,60.73
2023-04-05T00:48:59.187Z,56.17
2023-04-05T00:51:30.086Z,52.57
2023-04-05T00:53:59.236Z,60.57
2023-04-05T00:56:29.344Z,52.33
2023-04-05T00:58:58.601Z,58.67
2023-04-05T01:01:29.005Z,56.77
2023-04-05T01:04:05.430Z,61.13
2023-04-05T01:06:54.452Z,57.33
2023-04-05T01:09:38.324Z,57.97
2023-04-05T01:12:11.234Z,56.90
2023-04-05T01:14:50.093Z,53.80
2023-04-05T01:17:22.341Z,52.03
2023-04-05T01:19:54.449Z,53.77
2023-04-05T01:22:55.624Z,48.07
2023-04-05T01:26:00.135Z,51.50
2023-04-05T01:29:15.317Z,48.10
2023-04-05T01:31:55.108Z,49.30
2023-04-05T01:34:34.997Z,53.13
2023-04-05T01:37:12.657Z,55.50
2023-04-05T01:39:41.994Z,59.27
2023-04-05T01:42:12.076Z,51.73
2023-04-05T01:44:42.328Z,54.93
2023-04-05T01:47:12.831Z,59.40
2023-04-05T01:49:41.620Z,51.27
2023-04-05T01:52:10.842Z,57.03
2023-04-05T01:54:39.725Z,52.47
2023-04-05T01:57:10.553Z,57.77
2023-04-05T01:59:39.320Z,56.20
2023-04-05T02:02:08.380Z,48.57
2023-04-05T02:04:38.795Z,52.88
2023-04-05T02:07:07.846Z,52.43
2023-04-05T02:09:36.548Z,55.83
2023-04-05T02:12:05.913Z,51.70
2023-04-05T02:14:35.423Z,54.17
2023-04-05T02:17:04.472Z,59.10
2023-04-05T02:19:40.910Z,55.30
2023-04-05T02:22:11.721Z,52.07
2023-04-05T02:24:40.531Z,52.83
2023-04-05T02:27:09.600Z,52.00
2023-04-05T02:29:38.812Z,53.27
2023-04-05T02:32:07.895Z,58.40
2023-04-05T02:34:37.098Z,51.67
2023-04-05T02:37:06.414Z,53.93
2023-04-05T02:39:36.853Z,53.80
2023-04-05T02:42:06.586Z,59.67
2023-04-05T02:44:35.471Z,59.60
2023-04-05T02:47:04.917Z,54.80
2023-04-05T02:49:34.735Z,57.60
2023-04-05T02:52:06.682Z,57.57
2023-04-05T02:54:37.850Z,56.97
2023-04-05T02:57:10.657Z,54.73
2023-04-05T02:59:48.437Z,54.37
2023-04-05T03:02:17.533Z,55.90
2023-04-05T03:04:46.643Z,58.43
2023-04-05T03:07:18.727Z,54.93
2023-04-05T03:09:51.433Z,55.50
2023-04-05T03:12:21.405Z,55.07
2023-04-05T03:14:51.069Z,52.60
2023-04-05T03:17:24.480Z,55.30
2023-04-05T03:20:02.382Z,52.93
2023-04-05T03:22:32.064Z,56.20
2023-04-05T03:25:03.557Z,52.83
2023-04-05T03:27:33.935Z,64.67
2023-04-05T03:30:09.191Z,60.27
2023-04-05T03:32:43.832Z,58.50
2023-04-05T03:35:22.580Z,56.63
2023-04-05T03:37:52.500Z,56.20
2023-04-05T03:40:23.560Z,62.20
2023-04-05T03:42:53.723Z,56.00
2023-04-05T03:45:24.580Z,54.50
2023-04-05T03:47:55.130Z,59.90
2023-04-05T03:50:24.322Z,60.27
2023-04-05T03:52:54.914Z,62.50
2023-04-05T03:55:25.934Z,61.77
2023-04-05T03:57:55.513Z,60.27
2023-04-05T04:00:34.449Z,62.07
2023-04-05T04:03:17.829Z,63.57
2023-04-05T04:05:50.932Z,64.53
2023-04-05T04:08:20.900Z,58.47
2023-04-05T04:10:52.123Z,60.60
2023-04-05T04:13:25.494Z,59.23
2023-04-05T04:16:02.313Z,65.97
2023-04-05T04:18:49.880Z,58.43
2023-04-05T04:21:52.479Z,57.97
2023-04-05T04:24:50.206Z,58.20
2023-04-05T04:27:46.750Z,64.97
2023-04-05T04:30:23.531Z,60.00
2023-04-05T04:33:09.318Z,61.10
2023-04-05T04:35:47.258Z,60.30
2023-04-05T04:38:19.011Z,57.87
2023-04-05T04:41:08.758Z,59.03
2023-04-05T04:44:04.393Z,63.10
2023-04-05T04:46:54.795Z,62.33
2023-04-05T04:49:46.704Z,58.63
2023-04-05T04:52:15.780Z,66.63
2023-04-05T04:54:47.316Z,60.85
2023-04-05T04:57:16.336Z,60.43
2023-04-05T04:59:46.436Z,62.40
2023-04-05T05:02:15.492Z,60.83
2023-04-05T05:04:44.576Z,59.73
2023-04-05T05:07:13.629Z,64.17
2023-04-05T05:09:42.487Z,62.43
2023-04-05T05:12:11.572Z,64.93
2023-04-05T05:14:40.745Z,62.50
2023-04-05T05:17:11.119Z,63.77
2023-04-05T05:19:39.968Z,65.68
2023-04-05T05:22:08.935Z,63.10
2023-04-05T05:24:38.130Z,57.70
2023-04-05T05:27:07.617Z,60.35
2023-04-05T05:29:36.422Z,58.50
2023-04-05T05:32:06.487Z,65.22
2023-04-05T05:34:37.329Z,65.25
2023-04-05T05:37:06.833Z,61.03
2023-04-05T05:39:35.483Z,62.70
2023-04-05T05:42:04.904Z,62.53
2023-04-05T05:44:33.786Z,63.63
2023-04-05T05:47:03.638Z,62.27
2023-04-05T05:49:32.470Z,61.97
2023-04-05T05:52:02.890Z,56.97
2023-04-05T05:54:31.663Z,65.75
2023-04-05T05:57:02.246Z,71.50
2023-04-05T05:59:31.130Z,66.80
2023-04-05T06:02:00.202Z,63.47
2023-04-05T06:04:29.273Z,62.70
2023-04-05T06:06:59.157Z,66.85
2023-04-05T06:09:29.630Z,65.55
2023-04-05T06:11:58.728Z,65.78
2023-04-05T06:14:28.744Z,68.22
2023-04-05T06:16:57.860Z,70.38
2023-04-05T06:19:26.661Z,66.00
2023-04-05T06:21:56.642Z,65.60
2023-04-05T06:24:26.470Z,64.15
2023-04-05T06:26:56.909Z,63.17
2023-04-05T06:29:26.058Z,65.63
2023-04-05T06:31:56.470Z,68.10
2023-04-05T06:34:25.237Z,66.22
2023-04-05T06:36:55.937Z,68.47
2023-04-05T06:39:24.673Z,63.67
2023-04-05T06:41:53.780Z,66.03
2023-04-05T06:44:29.756Z,73.22
2023-04-05T06:46:59.253Z,69.47
2023-04-05T06:49:27.945Z,65.68
2023-04-05T06:51:57.028Z,65.07
2023-04-05T06:54:25.972Z,62.05
2023-04-05T06:56:57.143Z,55.88
2023-04-05T06:59:27.469Z,56.50
2023-04-05T07:01:58.192Z,49.45
2023-04-05T07:04:29.327Z,54.80
2023-04-05T07:06:58.807Z,55.55
2023-04-05T07:09:30.273Z,51.22
2023-04-05T07:11:59.491Z,53.42
2023-04-05T07:14:28.195Z,47.35
2023-04-05T07:16:58.747Z,45.80
2023-04-05T07:19:28.146Z,40.50
2023-04-05T07:21:57.856Z,44.90
2023-04-05T07:24:26.874Z,38.38
2023-04-05T07:26:56.912Z,43.72
2023-04-05T07:29:26.436Z,44.90
2023-04-05T07:31:55.508Z,45.58
2023-04-05T07:34:25.664Z,45.17
2023-04-05T07:36:54.758Z,41.92
2023-04-05T07:39:23.947Z,41.58
2023-04-05T07:41:53.264Z,42.92
2023-04-05T07:44:21.948Z,46.70
2023-04-05T07:46:51.126Z,46.60
2023-04-05T07:49:19.964Z,43.30
2023-04-05T07:51:51.126Z,45.78
2023-04-05T07:54:19.964Z,46.53
2023-04-05T07:56:50.311Z,48.80
2023-04-05T07:59:19.141Z,47.90
2023-04-05T08:01:48.203Z,44.40
2023-04-05T08:04:16.920Z,42.65
2023-04-05T08:06:46.361Z,47.03
2023-04-05T08:09:16.774Z,40.95
2023-04-05T08:11:46.234Z,37.75
2023-04-05T08:14:15.106Z,31.75
2023-04-05T08:16:44.817Z,26.27
2023-04-05T08:19:15.626Z,30.17
2023-04-05T08:21:45.112Z,28.50
2023-04-05T08:24:14.135Z,26.65
2023-04-05T08:26:44.639Z,25.58
2023-04-05T08:29:13.629Z,26.08
2023-04-05T08:31:45.556Z,24.35
2023-04-05T08:34:14.432Z,31.40
2023-04-05T08:36:43.465Z,24.85
2023-04-05T08:39:12.948Z,27.70
2023-04-05T08:41:57.094Z,23.83
2023-04-05T08:44:31.740Z,25.65
2023-04-05T08:47:02.004Z,22.25
2023-04-05T08:49:30.881Z,17.95
2023-04-05T08:52:02.050Z,18.83
2023-04-05T08:54:31.084Z,18.40
2023-04-05T08:57:05.984Z,19.92
2023-04-05T08:59:39.230Z,15.10
2023-04-05T09:02:18.386Z,16.02
2023-04-05T09:04:49.874Z,16.95
2023-04-05T09:07:21.655Z,14.63
2023-04-05T09:09:55.892Z,12.60
2023-04-05T09:12:28.117Z,11.68
2023-04-05T09:14:58.627Z,11.82
2023-04-05T09:17:29.785Z,12.38
2023-04-05T09:19:58.630Z,10.70
2023-04-05T09:22:28.737Z,11.60
2023-04-05T09:24:57.580Z,11.82
2023-04-05T09:27:28.245Z,12.10
2023-04-05T09:30:00.803Z,13.85
2023-04-05T09:32:30.014Z,10.93
2023-04-05T09:35:04.102Z,11.07
2023-04-05T09:37:35.031Z,11.98
2023-04-05T09:40:07.067Z,10.65
2023-04-05T09:42:47.130Z,10.65
2023-04-05T09:45:18.549Z,10.85
2023-04-05T09:48:00.030Z,11.55
2023-04-05T09:50:29.254Z,10.00
2023-04-05T09:53:15.964Z,10.93
2023-04-05T09:55:45.672Z,7.93
2023-04-05T09:58:21.908Z,6.88
2023-04-05T10:01:06.271Z,7.63
2023-04-05T10:03:49.130Z,12.73
2023-04-05T10:06:18.340Z,11.63
2023-04-05T10:08:48.927Z,12.93
2023-04-05T10:11:20.059Z,9.73
2023-04-05T10:13:52.641Z,10.85
2023-04-05T10:16:27.644Z,13.23
2023-04-05T10:18:56.821Z,12.45
2023-04-05T10:21:31.249Z,6.28
2023-04-05T10:24:13.203Z,8.07
2023-04-05T10:26:56.171Z,6.30
2023-04-05T10:29:39.393Z,5.40
2023-04-05T10:32:20.185Z,6.40
2023-04-05T10:35:07.097Z,6.05
2023-04-05T10:37:55.024Z,8.57
2023-04-05T10:40:26.534Z,8.23
2023-04-05T10:42:55.394Z,6.53
2023-04-05T10:45:28.675Z,8.88
2023-04-05T10:48:07.060Z,5.88
2023-04-05T10:50:38.385Z,5.53
2023-04-05T10:53:10.387Z,5.10
2023-04-05T10:55:40.645Z,6.03
2023-04-05T10:58:11.120Z,4.57
2023-04-05T11:00:42.553Z,4.30
2023-04-05T11:03:11.714Z,6.18
2023-04-05T11:05:41.293Z,5.07
2023-04-05T11:08:13.833Z,4.93
2023-04-05T11:10:43.203Z,6.50
2023-04-05T11:13:12.436Z,4.82
2023-04-05T11:15:43.023Z,6.55
2023-04-05T11:18:13.412Z,4.72
2023-04-05T11:20:52.454Z,7.80
2023-04-05T11:23:23.268Z,6.63
2023-04-05T11:25:55.711Z,6.57
2023-04-05T11:28:32.031Z,7.53
2023-04-05T11:31:16.699Z,6.30
2023-04-05T11:34:10.210Z,5.53
2023-04-05T11:36:45.922Z,6.82
2023-04-05T11:39:28.400Z,4.93
2023-04-05T11:42:10.414Z,6.65
2023-04-05T11:44:45.930Z,5.75
2023-04-05T11:47:21.733Z,7.13
2023-04-05T11:49:52.492Z,10.05
2023-04-05T11:52:22.764Z,7.03
2023-04-05T11:54:51.645Z,6.88
2023-04-05T11:57:23.439Z,5.28
2023-04-05T11:59:53.283Z,7.53
2023-04-05T12:02:24.252Z,7.50
2023-04-05T12:04:58.115Z,5.05
2023-04-05T12:07:29.516Z,5.60
2023-04-05T12:10:05.567Z,6.38
2023-04-05T12:12:39.657Z,5.15
2023-04-05T12:15:11.998Z,6.53
2023-04-05T12:17:45.461Z,6.70
2023-04-05T12:20:17.360Z,6.85
2023-04-05T12:22:49.445Z,7.15
2023-04-05T12:25:21.030Z,6.13
2023-04-05T12:27:50.185Z,5.30
2023-04-05T12:30:21.386Z,4.80
2023-04-05T12:32:55.223Z,8.90
2023-04-05T12:35:32.933Z,7.45
2023-04-05T12:38:03.375Z,6.95
2023-04-05T12:40:33.094Z,5.72
2023-04-05T12:43:06.892Z,7.82
2023-04-05T12:45:41.806Z,6.25
2023-04-05T12:48:15.973Z,6.05
2023-04-05T12:50:47.275Z,5.45
2023-04-05T12:53:21.417Z,6.97
2023-04-05T12:55:52.353Z,7.70
2023-04-05T12:58:22.989Z,6.68
2023-04-05T13:00:51.838Z,8.77
2023-04-05T13:03:23.849Z,5.93
2023-04-05T13:05:54.039Z,7.88
2023-04-05T13:08:23.358Z,6.45
2023-04-05T13:10:57.690Z,6.35
2023-04-05T13:13:27.344Z,7.53
2023-04-05T13:15:56.283Z,8.85
2023-04-05T13:18:26.720Z,7.88
2023-04-05T13:20:55.677Z,6.70
2023-04-05T13:23:24.813Z,8.02
2023-04-05T13:25:53.647Z,5.63
2023-04-05T13:28:22.682Z,6.03
2023-04-05T13:30:52.861Z,6.43
2023-04-05T13:33:23.622Z,5.55
2023-04-05T13:35:54.044Z,5.75
2023-04-05T13:38:23.226Z,6.85
2023-04-05T13:40:52.195Z,5.82
2023-04-05T13:43:21.264Z,6.25
2023-04-05T13:45:50.770Z,5.32
2023-04-05T13:48:19.781Z,7.50
2023-04-05T13:50:48.716Z,6.40
2023-04-05T13:53:19.144Z,5.63
2023-04-05T13:55:48.052Z,7.40
2023-04-05T13:58:17.097Z,6.85
2023-04-05T14:00:46.036Z,6.72
2023-04-05T14:03:15.164Z,5.65
2023-04-05T14:05:44.045Z,6.60
2023-04-05T14:08:13.046Z,5.85
2023-04-05T14:10:43.604Z,7.30
2023-04-05T14:13:16.322Z,7.63
2023-04-05T14:15:45.178Z,7.70
2023-04-05T14:18:14.251Z,7.80
2023-04-05T14:20:43.421Z,6.90
2023-04-05T14:23:12.665Z,8.35
2023-04-05T14:25:43.013Z,8.27
2023-04-05T14:28:12.265Z,8.45
2023-04-05T14:30:41.834Z,9.40
2023-04-05T14:33:11.310Z,8.55
2023-04-05T14:35:40.218Z,11.90
2023-04-05T14:38:09.595Z,8.50
2023-04-05T14:40:38.883Z,11.65
2023-04-05T14:43:09.382Z,10.05
2023-04-05T14:45:38.353Z,8.45
2023-04-05T14:48:07.793Z,11.63
2023-04-05T14:50:36.719Z,9.85
2023-04-05T14:53:05.875Z,8.63
2023-04-05T14:55:34.719Z,11.55
2023-04-05T14:58:03.765Z,9.75
2023-04-05T15:00:35.579Z,10.52
2023-04-05T15:03:05.172Z,9.98
2023-04-05T15:05:34.059Z,8.50
2023-04-05T15:08:03.140Z,8.63
2023-04-05T15:10:32.044Z,8.85
2023-04-05T15:13:01.292Z,8.52
2023-04-05T15:15:30.105Z,8.60
2023-04-05T15:18:00.671Z,8.10
2023-04-05T15:20:29.614Z,8.18
2023-04-05T15:22:58.843Z,13.45
2023-04-05T15:25:27.710Z,8.38
2023-04-05T15:28:00.208Z,10.45
2023-04-05T15:30:31.766Z,9.73
2023-04-05T15:33:02.407Z,9.75
2023-04-05T15:35:32.017Z,7.68
2023-04-05T15:38:01.802Z,9.18
2023-04-05T15:40:30.529Z,11.27
2023-04-05T15:43:00.290Z,12.70
2023-04-05T15:45:29.475Z,8.82
2023-04-05T15:47:58.560Z,9.65
2023-04-05T15:50:28.874Z,9.02
2023-04-05T15:52:58.086Z,10.95
2023-04-05T15:55:26.863Z,7.85
2023-04-05T15:57:55.938Z,7.63
2023-04-05T16:00:24.933Z,9.88
2023-04-05T16:02:56.072Z,10.32
2023-04-05T16:05:26.047Z,10.68
2023-04-05T16:07:56.856Z,10.48
2023-04-05T16:10:26.459Z,12.40
2023-04-05T16:12:55.704Z,11.40
2023-04-05T16:15:24.642Z,11.60
2023-04-05T16:17:53.701Z,12.48
2023-04-05T16:20:23.686Z,16.58
2023-04-05T16:22:53.057Z,16.35
2023-04-05T16:25:23.351Z,18.58
2023-04-05T16:27:52.538Z,16.85
2023-04-05T16:30:21.607Z,17.65
2023-04-05T16:32:52.156Z,12.65
2023-04-05T16:35:21.646Z,9.77
2023-04-05T16:37:50.764Z,9.13
2023-04-05T16:40:19.865Z,10.18
2023-04-05T16:42:50.333Z,14.93
2023-04-05T16:45:19.249Z,9.70
2023-04-05T16:47:48.637Z,12.50
2023-04-05T16:50:17.688Z,9.07
2023-04-05T16:52:47.069Z,11.43
2023-04-05T16:55:15.942Z,13.88
2023-04-05T16:57:44.994Z,9.85
2023-04-05T17:00:16.763Z,10.52
2023-04-05T17:02:45.965Z,8.40
2023-04-05T17:05:14.775Z,10.70
2023-04-05T17:07:44.133Z,10.68
2023-04-05T17:10:13.147Z,12.20
2023-04-05T17:12:42.304Z,15.65
2023-04-05T17:15:12.328Z,14.07
2023-04-05T17:17:43.007Z,12.23
2023-04-05T17:20:13.497Z,12.90
2023-04-05T17:22:42.698Z,10.48
2023-04-05T17:25:11.939Z,9.85
2023-04-05T17:27:41.639Z,11.73
2023-04-05T17:30:11.886Z,7.85
2023-04-05T17:32:42.694Z,9.40
2023-04-05T17:35:11.890Z,9.00
2023-04-05T17:37:41.060Z,5.35
2023-04-05T17:40:11.056Z,7.82
2023-04-05T17:42:40.141Z,6.72
2023-04-05T17:45:10.303Z,6.68
2023-04-05T17:47:39.597Z,7.93
2023-04-05T17:50:11.177Z,14.02
2023-04-05T17:52:40.537Z,14.73
2023-04-05T17:55:10.481Z,9.30
2023-04-05T17:57:39.669Z,14.75
2023-04-05T18:00:10.688Z,15.32
2023-04-05T18:02:40.873Z,14.73
2023-04-05T18:05:11.910Z,9.45
2023-04-05T18:07:42.655Z,8.93
2023-04-05T18:10:12.569Z,9.35
2023-04-05T18:12:41.819Z,9.73
2023-04-05T18:15:11.590Z,10.68
2023-04-05T18:17:41.252Z,7.75
2023-04-05T18:20:13.182Z,8.60
2023-04-05T18:22:42.396Z,10.88
2023-04-05T18:25:13.376Z,8.55
2023-04-05T18:27:42.672Z,8.30
2023-04-05T18:30:12.702Z,7.50
2023-04-05T18:32:45.321Z,7.30
2023-04-05T18:35:15.500Z,6.90
2023-04-05T18:37:44.510Z,6.93
2023-04-05T18:40:13.694Z,7.80
2023-04-05T18:42:43.746Z,7.70
2023-04-05T18:45:13.193Z,6.85
2023-04-05T18:47:42.245Z,8.98
2023-04-05T18:50:12.325Z,6.68
2023-04-05T18:52:42.886Z,7.15
2023-04-05T18:55:11.770Z,7.28
2023-04-05T18:57:41.033Z,7.60
2023-04-05T19:00:11.173Z,9.13
2023-04-05T19:02:41.151Z,8.30
2023-04-05T19:05:11.340Z,6.70
2023-04-05T19:07:41.872Z,5.82
2023-04-05T19:10:11.980Z,9.55
2023-04-05T19:12:41.337Z,9.10
2023-04-05T19:15:11.337Z,5.85
2023-04-05T19:17:40.625Z,6.00
2023-04-05T19:20:10.549Z,6.93
2023-04-05T19:22:39.713Z,7.32
2023-04-05T19:25:10.887Z,7.55
2023-04-05T19:27:41.360Z,7.72
2023-04-05T19:30:12.543Z,6.32
2023-04-05T19:32:41.832Z,7.60
2023-04-05T19:35:12.000Z,7.35
2023-04-05T19:37:41.102Z,6.05
2023-04-05T19:40:12.388Z,6.72
2023-04-05T19:42:47.842Z,6.38
2023-04-05T19:45:25.382Z,6.85
2023-04-05T19:47:56.315Z,5.28
2023-04-05T19:50:48.458Z,7.30
2023-04-05T19:53:42.608Z,8.45
2023-04-05T19:56:18.472Z,8.10
2023-04-05T19:58:51.093Z,8.05
2023-04-05T20:01:34.637Z,9.02
2023-04-05T20:04:12.237Z,9.25
2023-04-05T20:06:42.602Z,9.18
2023-04-05T20:09:13.633Z,10.55
2023-04-05T20:11:55.944Z,8.43
2023-04-05T20:14:30.692Z,8.70
2023-04-05T20:17:00.163Z,10.82
2023-04-05T20:19:31.200Z,7.28
2023-04-05T20:22:01.561Z,6.85
2023-04-05T20:24:30.791Z,8.52
2023-04-05T20:27:01.270Z,5.95
2023-04-05T20:29:32.430Z,9.32
2023-04-05T20:32:03.069Z,6.47
2023-04-05T20:34:34.850Z,6.97
2023-04-05T20:37:07.513Z,5.18
2023-04-05T20:39:36.847Z,7.20
2023-04-05T20:42:07.668Z,10.18
2023-04-05T20:44:36.846Z,7.82
2023-04-05T20:47:05.722Z,6.45
2023-04-05T20:49:35.137Z,6.90
2023-04-05T20:52:07.753Z,6.45
2023-04-05T20:54:36.958Z,5.10
2023-04-05T20:57:07.147Z,4.28
2023-04-05T20:59:36.554Z,4.18
2023-04-05T21:02:05.408Z,5.15
2023-04-05T21:04:34.695Z,5.70
2023-04-05T21:07:03.813Z,4.55
2023-04-05T21:09:32.831Z,5.20
2023-04-05T21:12:01.641Z,5.68
2023-04-05T21:14:31.940Z,6.03
2023-04-05T21:17:00.806Z,7.75
2023-04-05T21:19:30.002Z,5.53
2023-04-05T21:21:58.770Z,5.15
2023-04-05T21:24:27.788Z,7.18
2023-04-05T21:26:56.878Z,5.32
2023-04-05T21:29:26.088Z,7.25
2023-04-05T21:31:56.291Z,5.18
2023-04-05T21:34:25.390Z,5.97
2023-04-05T21:36:54.351Z,6.07
2023-04-05T21:39:23.573Z,5.65
2023-04-05T21:41:52.292Z,4.88
2023-04-05T21:44:21.351Z,6.18
2023-04-05T21:46:50.225Z,5.15
2023-04-05T21:49:20.728Z,5.57
2023-04-05T21:51:49.478Z,6.78
2023-04-05T21:54:18.511Z,7.32
2023-04-05T21:56:47.322Z,8.05
2023-04-05T21:59:16.265Z,5.78
2023-04-05T22:01:45.105Z,9.80
2023-04-05T22:04:14.149Z,7.05
2023-04-05T22:06:44.335Z,8.93
2023-04-05T22:09:13.429Z,7.70
2023-04-05T22:11:42.292Z,6.35
2023-04-05T22:14:11.443Z,6.45
2023-04-05T22:16:40.218Z,7.47
2023-04-05T22:19:11.574Z,7.47
2023-04-05T22:21:41.349Z,6.82
2023-04-05T22:24:12.722Z,7.68
2023-04-05T22:26:42.192Z,6.65
2023-04-05T22:29:11.480Z,6.38
2023-04-05T22:31:40.347Z,7.07
2023-04-05T22:34:09.439Z,6.50
2023-04-05T22:36:38.158Z,7.45
2023-04-05T22:39:07.550Z,6.63
2023-04-05T22:41:37.831Z,5.97
2023-04-05T22:44:07.572Z,7.28
2023-04-05T22:46:37.785Z,6.93
2023-04-05T22:49:07.309Z,6.95
2023-04-05T22:51:36.343Z,9.70
2023-04-05T22:54:05.724Z,7.75
2023-04-05T22:56:34.389Z,8.57
2023-04-05T22:59:04.834Z,8.73
2023-04-05T23:01:33.661Z,6.85
2023-04-05T23:04:02.788Z,8.60
2023-04-05T23:06:32.237Z,7.22
2023-04-05T23:09:03.188Z,6.63
2023-04-05T23:11:32.261Z,6.07
2023-04-05T23:14:01.592Z,5.07
2023-04-05T23:16:31.794Z,6.35
2023-04-05T23:19:00.877Z,6.80
2023-04-05T23:21:29.668Z,5.93
2023-04-05T23:23:58.834Z,6.68
2023-04-05T23:26:29.016Z,6.15
2023-04-05T23:28:58.067Z,7.63
2023-04-05T23:31:26.858Z,6.53
2023-04-05T23:33:57.480Z,8.20
2023-04-05T23:36:27.674Z,7.60
2023-04-05T23:38:58.650Z,5.55
2023-04-05T23:41:27.472Z,5.35
2023-04-05T23:43:56.934Z,6.32
2023-04-05T23:46:26.389Z,5.18
2023-04-05T23:48:56.862Z,4.50
2023-04-05T23:51:26.437Z,5.93
2023-04-05T23:53:55.409Z,4.75
2023-04-05T23:56:24.129Z,4.45
2023-04-05T23:58:53.214Z,5.10
